Time;durP1;ratioP1;P1;durP2;ratioP2;P2;SDS_P1;SDS_P2;PMS_P1;PMS_P2;Temp;Humidity;BMP_temperature;BMP_pressure;BME280_temperature;BME280_humidity;BME280_pressure;Samples;Min_cycle;Max_cycle;Signal;HPM_P1;HPM_P2
2023/12/15 00:00:40;;;;;;;21.77;10.43;;;;;;;;;;4968370;28;20030;-67
2023/12/15 00:03:06;;;;;;;31.33;10.88;;;;;;;;;;4969075;28;20242;-68
2023/12/15 00:05:31;;;;;;;22.17;10.10;;;;;;;;;;4967683;28;20027;-64
2023/12/15 00:07:56;;;;;;;24.35;11.43;;;;;;;;;;4969755;28;20019;-65
2023/12/15 00:10:21;;;;;;;23.75;10.52;;;;;;;;;;4969085;28;20022;-68
2023/12/15 00:12:47;;;;;;;16.98;8.80;;;;;;;;;;4962993;28;20102;-68
2023/12/15 00:15:12;;;;;;;18.98;8.60;;;;;;;;;;4968291;28;20022;-68
2023/12/15 00:17:37;;;;;;;14.10;7.15;;;;;;;;;;4968999;28;20030;-67
2023/12/15 00:20:03;;;;;;;14.05;5.90;;;;;;;;;;4969401;28;20030;-67
2023/12/15 00:22:29;;;;;;;10.63;5.47;;;;;;;;;;4970092;28;20023;-66
2023/12/15 00:24:54;;;;;;;12.48;5.93;;;;;;;;;;4968326;28;20478;-67
2023/12/15 00:27:19;;;;;;;12.25;5.72;;;;;;;;;;4968030;28;20036;-67
2023/12/15 00:29:44;;;;;;;13.98;5.60;;;;;;;;;;4968417;28;20019;-68
2023/12/15 00:32:09;;;;;;;12.35;5.80;;;;;;;;;;4968024;28;20090;-66
2023/12/15 00:34:35;;;;;;;14.25;5.40;;;;;;;;;;4968591;28;20258;-68
2023/12/15 00:37:00;;;;;;;15.48;6.38;;;;;;;;;;4968473;28;20034;-67
2023/12/15 00:39:25;;;;;;;12.63;5.78;;;;;;;;;;4969168;28;20114;-66
2023/12/15 00:41:50;;;;;;;14.32;7.22;;;;;;;;;;4968942;28;20114;-67
2023/12/15 00:44:22;;;;;;;12.15;6.70;;;;;;;;;;4967713;28;20031;-69
2023/12/15 00:46:47;;;;;;;15.98;8.00;;;;;;;;;;4967431;28;20097;-68
2023/12/15 00:49:12;;;;;;;18.58;8.32;;;;;;;;;;4964996;28;20027;-68
2023/12/15 00:51:37;;;;;;;18.42;7.50;;;;;;;;;;4968796;28;20023;-68
2023/12/15 00:54:02;;;;;;;19.25;8.30;;;;;;;;;;4967831;28;20483;-69
2023/12/15 00:56:27;;;;;;;15.05;7.90;;;;;;;;;;4967842;28;20109;-68
2023/12/15 00:58:53;;;;;;;18.13;8.15;;;;;;;;;;4967438;28;20018;-70
2023/12/15 01:01:18;;;;;;;17.40;8.45;;;;;;;;;;4968179;28;20027;-68
2023/12/15 01:03:43;;;;;;;20.33;8.93;;;;;;;;;;4981668;28;20084;-69
2023/12/15 01:06:08;;;;;;;20.38;8.07;;;;;;;;;;4986127;28;20090;-68
2023/12/15 01:08:34;;;;;;;21.60;8.98;;;;;;;;;;4994534;28;20015;-70
2023/12/15 01:10:59;;;;;;;14.52;7.60;;;;;;;;;;4974453;28;20041;-68
2023/12/15 01:13:24;;;;;;;24.70;9.80;;;;;;;;;;4968049;28;20019;-67
2023/12/15 01:15:49;;;;;;;22.50;8.63;;;;;;;;;;4967322;28;20031;-66
2023/12/15 01:18:14;;;;;;;21.23;9.68;;;;;;;;;;4967321;28;20026;-69
2023/12/15 01:20:40;;;;;;;22.38;10.18;;;;;;;;;;4965795;28;20073;-70
2023/12/15 01:23:05;;;;;;;24.15;10.48;;;;;;;;;;4967179;28;20082;-67
2023/12/15 01:25:30;;;;;;;23.90;9.73;;;;;;;;;;4967640;28;20038;-68
2023/12/15 01:27:55;;;;;;;26.95;10.75;;;;;;;;;;4967571;28;20023;-70
2023/12/15 01:30:21;;;;;;;21.55;9.63;;;;;;;;;;4966741;28;20027;-67
2023/12/15 01:32:46;;;;;;;23.55;10.23;;;;;;;;;;4967572;28;20034;-68
2023/12/15 01:35:11;;;;;;;21.30;9.57;;;;;;;;;;4968068;28;20042;-67
2023/12/15 01:37:36;;;;;;;25.05;10.45;;;;;;;;;;4972193;28;20077;-67
2023/12/15 01:40:02;;;;;;;24.45;10.25;;;;;;;;;;4970041;28;20031;-66
2023/12/15 01:42:28;;;;;;;23.38;9.90;;;;;;;;;;4968038;28;20534;-67
2023/12/15 01:44:53;;;;;;;24.23;10.10;;;;;;;;;;4967712;28;20165;-68
2023/12/15 01:47:19;;;;;;;22.27;11.10;;;;;;;;;;4970515;28;20018;-68
2023/12/15 01:49:47;;;;;;;21.02;9.85;;;;;;;;;;4967415;28;20023;-68
2023/12/15 01:52:12;;;;;;;20.52;9.15;;;;;;;;;;4971540;28;20023;-68
2023/12/15 01:54:37;;;;;;;22.58;10.05;;;;;;;;;;4968756;28;20019;-68
2023/12/15 01:57:03;;;;;;;21.08;9.90;;;;;;;;;;4970767;28;20035;-70
2023/12/15 01:59:40;;;;;;;22.30;10.50;;;;;;;;;;4967299;28;20678;-66
2023/12/15 02:02:05;;;;;;;19.65;8.38;;;;;;;;;;4968389;28;20133;-69
2023/12/15 02:04:30;;;;;;;19.98;9.20;;;;;;;;;;4970663;28;20022;-69
2023/12/15 02:06:58;;;;;;;20.90;9.40;;;;;;;;;;4970588;28;20022;-69
2023/12/15 02:09:24;;;;;;;20.43;9.00;;;;;;;;;;4965132;28;20086;-68
2023/12/15 02:11:49;;;;;;;25.13;9.82;;;;;;;;;;4965189;28;20019;-66
2023/12/15 02:14:14;;;;;;;23.35;10.05;;;;;;;;;;4969458;28;20067;-68
2023/12/15 02:16:39;;;;;;;19.27;8.60;;;;;;;;;;4969831;28;20027;-67
2023/12/15 02:19:05;;;;;;;21.05;8.57;;;;;;;;;;4971269;28;20042;-68
2023/12/15 02:21:32;;;;;;;21.08;8.43;;;;;;;;;;4971294;28;20019;-69
2023/12/15 02:23:57;;;;;;;22.83;8.82;;;;;;;;;;4971119;28;20050;-69
2023/12/15 02:26:22;;;;;;;22.83;8.45;;;;;;;;;;4970136;28;20050;-69
2023/12/15 02:28:47;;;;;;;26.27;9.23;;;;;;;;;;4969089;28;20070;-69
2023/12/15 02:31:12;;;;;;;18.60;8.25;;;;;;;;;;4969935;28;20047;-69
2023/12/15 02:33:38;;;;;;;21.20;8.27;;;;;;;;;;4971476;28;20069;-68
2023/12/15 02:36:03;;;;;;;29.77;8.77;;;;;;;;;;4970659;28;20465;-68
2023/12/15 02:38:28;;;;;;;18.58;8.20;;;;;;;;;;4972824;28;20076;-70
2023/12/15 02:40:54;;;;;;;19.45;8.48;;;;;;;;;;4970707;28;20030;-69
2023/12/15 02:43:20;;;;;;;21.00;9.32;;;;;;;;;;4970973;28;20022;-71
2023/12/15 02:45:45;;;;;;;17.77;8.13;;;;;;;;;;4969544;28;20050;-68
2023/12/15 02:48:10;;;;;;;22.55;9.18;;;;;;;;;;4969906;28;20015;-70
2023/12/15 02:50:35;;;;;;;25.83;8.98;;;;;;;;;;4971419;28;20504;-70
2023/12/15 02:53:00;;;;;;;21.75;8.43;;;;;;;;;;4968123;28;20426;-69
2023/12/15 02:55:26;;;;;;;22.17;8.10;;;;;;;;;;4970457;28;20667;-69
2023/12/15 02:57:51;;;;;;;17.60;8.05;;;;;;;;;;4963891;28;20022;-68
2023/12/15 03:00:16;;;;;;;20.70;8.55;;;;;;;;;;4968132;28;20098;-69
2023/12/15 03:02:41;;;;;;;24.10;8.18;;;;;;;;;;4970815;28;20019;-69
2023/12/15 03:05:07;;;;;;;19.30;8.40;;;;;;;;;;4968185;28;20400;-69
2023/12/15 03:07:32;;;;;;;20.23;8.45;;;;;;;;;;4971816;28;20014;-69
2023/12/15 03:09:57;;;;;;;23.30;9.10;;;;;;;;;;4969630;28;20424;-70
2023/12/15 03:12:22;;;;;;;20.75;8.40;;;;;;;;;;4963557;28;20057;-69
2023/12/15 03:14:48;;;;;;;20.23;8.88;;;;;;;;;;4969831;28;20097;-70
2023/12/15 03:17:15;;;;;;;20.42;8.05;;;;;;;;;;4961414;28;20031;-69
2023/12/15 03:19:41;;;;;;;21.02;8.48;;;;;;;;;;4968822;28;20023;-69
2023/12/15 03:22:06;;;;;;;24.02;8.73;;;;;;;;;;4970719;28;20034;-69
2023/12/15 03:24:31;;;;;;;24.42;8.30;;;;;;;;;;4970419;28;20070;-69
2023/12/15 03:26:56;;;;;;;23.30;9.77;;;;;;;;;;4968330;28;20026;-70
2023/12/15 03:29:22;;;;;;;21.98;8.35;;;;;;;;;;4967150;28;20430;-69
2023/12/15 03:31:47;;;;;;;26.15;8.63;;;;;;;;;;4969439;28;20019;-69
2023/12/15 03:34:12;;;;;;;22.40;9.07;;;;;;;;;;4968519;28;20027;-69
2023/12/15 03:36:38;;;;;;;26.45;9.85;;;;;;;;;;4970538;28;20589;-69
2023/12/15 03:39:07;;;;;;;24.42;8.52;;;;;;;;;;4974734;28;20054;-69
2023/12/15 03:41:32;;;;;;;26.58;9.43;;;;;;;;;;4970051;28;20037;-68
2023/12/15 03:43:57;;;;;;;22.27;9.43;;;;;;;;;;4968753;28;20022;-69
2023/12/15 03:46:23;;;;;;;24.50;9.20;;;;;;;;;;4960406;28;20066;-69
2023/12/15 03:48:48;;;;;;;31.67;10.43;;;;;;;;;;4968854;28;20023;-68
2023/12/15 03:51:13;;;;;;;25.27;10.23;;;;;;;;;;4969740;28;20109;-69
2023/12/15 03:53:38;;;;;;;30.98;10.65;;;;;;;;;;4966758;28;20122;-68
2023/12/15 03:56:04;;;;;;;27.70;10.68;;;;;;;;;;4967371;28;20023;-68
2023/12/15 03:58:29;;;;;;;27.10;10.77;;;;;;;;;;4964722;28;20106;-69
2023/12/15 04:00:55;;;;;;;32.58;9.65;;;;;;;;;;4968794;28;20129;-68
2023/12/15 04:03:20;;;;;;;32.72;11.57;;;;;;;;;;4968892;28;20046;-68
2023/12/15 04:05:45;;;;;;;24.60;10.30;;;;;;;;;;4967927;28;20469;-69
2023/12/15 04:08:10;;;;;;;24.05;9.80;;;;;;;;;;4969224;28;20046;-68
2023/12/15 04:10:36;;;;;;;23.27;9.85;;;;;;;;;;4969239;28;20050;-68
2023/12/15 04:13:01;;;;;;;24.75;10.38;;;;;;;;;;4969594;28;20546;-67
2023/12/15 04:15:26;;;;;;;26.73;10.07;;;;;;;;;;4966397;28;20023;-68
2023/12/15 04:17:51;;;;;;;26.90;10.27;;;;;;;;;;4963675;28;20061;-69
2023/12/15 04:20:17;;;;;;;27.35;10.95;;;;;;;;;;4969029;28;21375;-67
2023/12/15 04:22:42;;;;;;;22.73;9.57;;;;;;;;;;4969108;28;20367;-68
2023/12/15 04:25:07;;;;;;;23.73;11.05;;;;;;;;;;4968772;28;20490;-68
2023/12/15 04:27:32;;;;;;;33.70;12.60;;;;;;;;;;4967668;28;20019;-68
2023/12/15 04:29:57;;;;;;;29.77;11.48;;;;;;;;;;4967716;28;20063;-69
2023/12/15 04:32:23;;;;;;;33.20;12.35;;;;;;;;;;4967939;28;20019;-68
2023/12/15 04:34:48;;;;;;;33.88;11.80;;;;;;;;;;4968919;28;20173;-69
2023/12/15 04:37:14;;;;;;;30.52;11.30;;;;;;;;;;4967435;28;20113;-68
2023/12/15 04:39:39;;;;;;;28.23;10.98;;;;;;;;;;4968686;28;20026;-69
2023/12/15 04:42:05;;;;;;;24.52;11.13;;;;;;;;;;4968143;28;20019;-69
2023/12/15 04:44:30;;;;;;;33.13;12.32;;;;;;;;;;4967900;28;20049;-68
2023/12/15 04:46:55;;;;;;;30.42;10.88;;;;;;;;;;4967621;28;20442;-69
2023/12/15 04:49:21;;;;;;;33.60;11.90;;;;;;;;;;4966949;28;20117;-70
2023/12/15 04:51:46;;;;;;;26.42;11.07;;;;;;;;;;4969573;28;20031;-69
2023/12/15 04:54:11;;;;;;;26.70;11.43;;;;;;;;;;4965899;28;20015;-70
2023/12/15 04:56:36;;;;;;;27.00;10.32;;;;;;;;;;4967469;28;20027;-67
2023/12/15 04:59:02;;;;;;;32.20;11.25;;;;;;;;;;4958324;28;20122;-68
2023/12/15 05:01:27;;;;;;;29.13;12.45;;;;;;;;;;4967792;28;20038;-67
2023/12/15 05:03:52;;;;;;;34.17;11.75;;;;;;;;;;4967185;28;20065;-67
2023/12/15 05:06:19;;;;;;;25.52;10.75;;;;;;;;;;4966448;28;20102;-68
2023/12/15 05:08:44;;;;;;;30.30;11.25;;;;;;;;;;4962493;28;20031;-67
2023/12/15 05:11:09;;;;;;;27.42;11.07;;;;;;;;;;4967682;28;20038;-69
2023/12/15 05:13:35;;;;;;;27.58;11.85;;;;;;;;;;4966219;28;20121;-68
2023/12/15 05:16:00;;;;;;;34.90;13.55;;;;;;;;;;4967176;28;20054;-68
2023/12/15 05:18:25;;;;;;;32.75;12.05;;;;;;;;;;4963641;28;20161;-68
2023/12/15 05:20:51;;;;;;;34.15;10.63;;;;;;;;;;4967053;28;20093;-67
2023/12/15 05:23:16;;;;;;;34.58;13.80;;;;;;;;;;4965086;28;20029;-68
2023/12/15 05:25:41;;;;;;;35.60;12.38;;;;;;;;;;4968249;28;20015;-68
2023/12/15 05:28:06;;;;;;;40.20;12.80;;;;;;;;;;4967691;28;20027;-67
2023/12/15 05:30:32;;;;;;;32.97;12.50;;;;;;;;;;4965059;28;20161;-67
2023/12/15 05:32:57;;;;;;;31.02;11.10;;;;;;;;;;4968065;28;20157;-67
2023/12/15 05:35:22;;;;;;;36.40;12.80;;;;;;;;;;4967975;28;20069;-69
2023/12/15 05:37:49;;;;;;;27.75;11.20;;;;;;;;;;4966749;28;20133;-68
2023/12/15 05:40:15;;;;;;;28.00;11.40;;;;;;;;;;4964848;28;20387;-71
2023/12/15 05:42:41;;;;;;;38.70;14.20;;;;;;;;;;4968209;28;20023;-70
2023/12/15 05:45:06;;;;;;;35.75;13.25;;;;;;;;;;4967171;28;20042;-69
2023/12/15 05:47:31;;;;;;;28.40;11.40;;;;;;;;;;4964435;28;20027;-69
2023/12/15 05:49:56;;;;;;;27.40;11.77;;;;;;;;;;4967426;28;20081;-69
2023/12/15 05:52:22;;;;;;;30.40;11.60;;;;;;;;;;4967769;28;20081;-69
2023/12/15 05:54:47;;;;;;;26.05;11.20;;;;;;;;;;4967277;28;20455;-70
2023/12/15 05:57:12;;;;;;;25.95;11.40;;;;;;;;;;4964271;28;20153;-69
2023/12/15 05:59:37;;;;;;;24.35;11.35;;;;;;;;;;4972425;28;20027;-68
2023/12/15 06:02:03;;;;;;;25.90;11.07;;;;;;;;;;4965179;28;20126;-68
2023/12/15 06:04:28;;;;;;;31.55;10.50;;;;;;;;;;4962981;28;20463;-68
2023/12/15 06:06:53;;;;;;;34.55;13.52;;;;;;;;;;4972037;28;20023;-69
2023/12/15 06:09:18;;;;;;;34.55;12.85;;;;;;;;;;4968344;28;20081;-68
2023/12/15 06:11:44;;;;;;;32.38;12.85;;;;;;;;;;4965908;28;20196;-67
2023/12/15 06:14:09;;;;;;;27.73;11.88;;;;;;;;;;4967451;28;20359;-69
2023/12/15 06:16:35;;;;;;;32.45;12.25;;;;;;;;;;4967087;28;20030;-68
2023/12/15 06:19:00;;;;;;;25.67;11.43;;;;;;;;;;4967307;28;20027;-69
2023/12/15 06:21:26;;;;;;;28.50;10.65;;;;;;;;;;4968041;28;20407;-68
2023/12/15 06:23:52;;;;;;;25.20;10.27;;;;;;;;;;4968309;28;20026;-68
2023/12/15 06:26:20;;;;;;;29.42;11.07;;;;;;;;;;4966334;28;20026;-69
2023/12/15 06:28:46;;;;;;;27.00;11.10;;;;;;;;;;4966396;28;20022;-69
2023/12/15 06:31:11;;;;;;;25.52;10.07;;;;;;;;;;4967182;28;20019;-69
2023/12/15 06:33:36;;;;;;;28.75;11.30;;;;;;;;;;4970285;28;20475;-69
2023/12/15 06:36:03;;;;;;;28.40;11.88;;;;;;;;;;4967197;28;20054;-69
2023/12/15 06:38:28;;;;;;;24.08;10.73;;;;;;;;;;4970755;28;20069;-69
2023/12/15 06:40:53;;;;;;;29.42;12.20;;;;;;;;;;4971807;28;20106;-69
2023/12/15 06:43:18;;;;;;;30.30;11.15;;;;;;;;;;4970728;28;20042;-70
2023/12/15 06:45:43;;;;;;;27.58;10.95;;;;;;;;;;4970856;28;20042;-69
2023/12/15 06:48:09;;;;;;;30.90;12.07;;;;;;;;;;4971215;28;20094;-69
2023/12/15 06:50:34;;;;;;;26.23;10.98;;;;;;;;;;4971156;28;20018;-69
2023/12/15 06:52:59;;;;;;;30.30;12.10;;;;;;;;;;4968004;28;20255;-69
2023/12/15 06:55:26;;;;;;;32.92;12.52;;;;;;;;;;4970810;28;20082;-69
2023/12/15 06:57:51;;;;;;;28.98;10.18;;;;;;;;;;4970573;28;20039;-69
2023/12/15 07:00:16;;;;;;;29.17;11.55;;;;;;;;;;4969259;28;20030;-69
2023/12/15 07:02:41;;;;;;;24.92;10.82;;;;;;;;;;4971285;28;20085;-71
2023/12/15 07:05:07;;;;;;;31.42;10.93;;;;;;;;;;4968941;28;20015;-69
2023/12/15 07:07:32;;;;;;;28.98;11.95;;;;;;;;;;4977912;28;20101;-70
2023/12/15 07:09:57;;;;;;;29.20;11.80;;;;;;;;;;4970852;28;20367;-70
2023/12/15 07:12:22;;;;;;;30.15;11.50;;;;;;;;;;4970495;28;20640;-68
2023/12/15 07:14:48;;;;;;;30.23;11.02;;;;;;;;;;4970374;28;20031;-68
2023/12/15 07:17:13;;;;;;;32.78;12.32;;;;;;;;;;4969585;28;20031;-67
2023/12/15 07:19:38;;;;;;;27.95;10.48;;;;;;;;;;4970789;28;20094;-67
2023/12/15 07:22:03;;;;;;;31.90;13.50;;;;;;;;;;4971424;28;20050;-68
2023/12/15 07:24:29;;;;;;;35.70;12.65;;;;;;;;;;4970976;28;20026;-68
2023/12/15 07:26:54;;;;;;;36.30;13.63;;;;;;;;;;4970120;28;20382;-69
2023/12/15 07:29:21;;;;;;;29.83;11.60;;;;;;;;;;4970371;28;20078;-68
2023/12/15 07:31:47;;;;;;;32.65;13.57;;;;;;;;;;4970555;28;20030;-72
2023/12/15 07:34:12;;;;;;;31.00;12.73;;;;;;;;;;4970845;28;20038;-68
2023/12/15 07:36:37;;;;;;;35.03;13.32;;;;;;;;;;4970232;28;20019;-68
2023/12/15 07:39:03;;;;;;;28.52;10.40;;;;;;;;;;4970595;28;20030;-68
2023/12/15 07:41:28;;;;;;;29.38;12.13;;;;;;;;;;4966611;28;20030;-69
2023/12/15 07:43:53;;;;;;;32.83;12.57;;;;;;;;;;4969165;28;20026;-68
2023/12/15 07:46:19;;;;;;;29.25;11.77;;;;;;;;;;4966181;28;20113;-69
2023/12/15 07:48:45;;;;;;;29.13;11.45;;;;;;;;;;4965444;28;20026;-70
2023/12/15 07:51:19;;;;;;;34.65;11.93;;;;;;;;;;4962477;28;20081;-69
2023/12/15 07:53:46;;;;;;;26.83;11.30;;;;;;;;;;4968858;28;20027;-69
2023/12/15 07:56:33;;;;;;;28.15;10.70;;;;;;;;;;4966941;28;20015;-66
2023/12/15 07:58:58;;;;;;;28.42;10.32;;;;;;;;;;4966197;28;20544;-68
2023/12/15 08:01:24;;;;;;;30.92;11.93;;;;;;;;;;4968769;28;20101;-69
2023/12/15 08:03:50;;;;;;;28.90;12.15;;;;;;;;;;4966842;28;20029;-67
2023/12/15 08:06:16;;;;;;;29.98;12.75;;;;;;;;;;4964144;28;20113;-67
2023/12/15 08:08:41;;;;;;;27.83;11.05;;;;;;;;;;4968987;28;20518;-69
2023/12/15 08:11:07;;;;;;;27.80;10.75;;;;;;;;;;4967408;28;20053;-69
2023/12/15 08:13:32;;;;;;;30.33;11.48;;;;;;;;;;4956847;28;20026;-69
2023/12/15 08:15:58;;;;;;;28.95;12.38;;;;;;;;;;4974160;28;20026;-70
2023/12/15 08:18:23;;;;;;;20.60;10.02;;;;;;;;;;4973210;28;20894;-68
2023/12/15 08:20:48;;;;;;;26.70;11.40;;;;;;;;;;4974036;28;20038;-66
2023/12/15 08:23:14;;;;;;;27.30;11.65;;;;;;;;;;4969023;28;20030;-68
2023/12/15 08:25:39;;;;;;;38.45;11.70;;;;;;;;;;4970645;28;20131;-69
2023/12/15 08:28:04;;;;;;;34.13;12.25;;;;;;;;;;4967889;28;20027;-69
2023/12/15 08:30:30;;;;;;;24.23;10.30;;;;;;;;;;4965661;28;20085;-70
2023/12/15 08:32:55;;;;;;;26.25;9.60;;;;;;;;;;4969487;28;20018;-70
2023/12/15 08:35:20;;;;;;;24.48;10.52;;;;;;;;;;4969983;28;20049;-71
2023/12/15 08:37:45;;;;;;;33.97;11.90;;;;;;;;;;4971718;28;20064;-70
2023/12/15 08:40:11;;;;;;;28.40;10.10;;;;;;;;;;4971112;28;20030;-68
2023/12/15 08:42:36;;;;;;;24.02;9.95;;;;;;;;;;4970290;28;20031;-68
2023/12/15 08:45:02;;;;;;;24.00;9.50;;;;;;;;;;4966573;28;20022;-68
2023/12/15 08:47:27;;;;;;;18.83;9.10;;;;;;;;;;4967935;28;20023;-65
2023/12/15 08:49:52;;;;;;;27.27;9.95;;;;;;;;;;4965106;28;20049;-69
2023/12/15 08:52:17;;;;;;;23.88;10.40;;;;;;;;;;4967581;28;20027;-70
2023/12/15 08:54:43;;;;;;;23.75;10.45;;;;;;;;;;4963268;28;20034;-71
2023/12/15 08:57:08;;;;;;;25.60;12.23;;;;;;;;;;4966701;28;20096;-69
2023/12/15 08:59:33;;;;;;;28.80;10.98;;;;;;;;;;4966197;28;20014;-67
2023/12/15 09:01:58;;;;;;;29.67;11.32;;;;;;;;;;4966128;28;20554;-67
2023/12/15 09:04:24;;;;;;;27.23;11.80;;;;;;;;;;4962012;28;20055;-68
2023/12/15 09:06:49;;;;;;;26.38;11.02;;;;;;;;;;4969079;28;20015;-70
2023/12/15 09:09:14;;;;;;;20.48;9.48;;;;;;;;;;4968978;28;20114;-67
2023/12/15 09:11:39;;;;;;;25.20;9.57;;;;;;;;;;4953698;28;20495;-70
2023/12/15 09:14:04;;;;;;;25.90;11.77;;;;;;;;;;4964254;28;20078;-65
2023/12/15 09:16:30;;;;;;;27.83;11.20;;;;;;;;;;4966382;28;20019;-69
2023/12/15 09:18:55;;;;;;;28.38;11.27;;;;;;;;;;4966446;28;20022;-68
2023/12/15 09:21:20;;;;;;;28.48;10.73;;;;;;;;;;4966756;28;20038;-68
2023/12/15 09:23:47;;;;;;;24.65;10.55;;;;;;;;;;4967405;28;20019;-70
2023/12/15 09:26:12;;;;;;;21.92;10.00;;;;;;;;;;4966661;28;20034;-67
2023/12/15 09:28:38;;;;;;;24.70;9.60;;;;;;;;;;4966731;28;20031;-67
2023/12/15 09:31:03;;;;;;;22.98;11.02;;;;;;;;;;4965526;28;20030;-67
2023/12/15 09:33:28;;;;;;;24.27;9.52;;;;;;;;;;4967526;28;20534;-69
2023/12/15 09:35:55;;;;;;;26.35;10.18;;;;;;;;;;4967881;28;20026;-69
2023/12/15 09:38:20;;;;;;;23.88;9.63;;;;;;;;;;4971085;28;20139;-68
2023/12/15 09:40:46;;;;;;;22.70;9.20;;;;;;;;;;4963963;28;20090;-68
2023/12/15 09:43:11;;;;;;;21.95;10.50;;;;;;;;;;4960525;28;20026;-68
2023/12/15 09:45:36;;;;;;;22.42;9.70;;;;;;;;;;4967267;28;20038;-70
2023/12/15 09:48:06;;;;;;;23.48;10.20;;;;;;;;;;4966985;28;20549;-69
2023/12/15 09:50:32;;;;;;;25.20;11.02;;;;;;;;;;4971360;28;20030;-67
2023/12/15 09:52:57;;;;;;;26.30;10.32;;;;;;;;;;4965972;28;20038;-70
2023/12/15 09:55:24;;;;;;;22.48;10.38;;;;;;;;;;4964932;28;20396;-69
2023/12/15 09:57:50;;;;;;;22.98;10.23;;;;;;;;;;4961312;28;20038;-68
2023/12/15 10:00:16;;;;;;;26.77;11.02;;;;;;;;;;4963632;28;20027;-70
2023/12/15 10:02:41;;;;;;;26.25;10.50;;;;;;;;;;4961787;28;20031;-70
2023/12/15 10:05:06;;;;;;;21.95;9.18;;;;;;;;;;4965254;28;20015;-69
2023/12/15 10:07:31;;;;;;;22.30;10.80;;;;;;;;;;4982245;28;20027;-70
2023/12/15 10:09:56;;;;;;;26.48;10.57;;;;;;;;;;4972895;28;20442;-68
2023/12/15 10:12:22;;;;;;;24.42;11.18;;;;;;;;;;4974465;28;20419;-69
2023/12/15 10:14:47;;;;;;;28.85;11.07;;;;;;;;;;4976517;28;20106;-70
2023/12/15 10:17:13;;;;;;;25.92;10.25;;;;;;;;;;4971616;28;20109;-68
2023/12/15 10:19:38;;;;;;;31.10;10.77;;;;;;;;;;4971932;28;20023;-69
2023/12/15 10:22:04;;;;;;;24.05;10.25;;;;;;;;;;4971181;28;20625;-69
2023/12/15 10:24:32;;;;;;;23.65;10.45;;;;;;;;;;4971213;28;20219;-66
2023/12/15 10:26:59;;;;;;;31.42;11.40;;;;;;;;;;4970159;28;20088;-67
2023/12/15 10:29:25;;;;;;;31.67;11.23;;;;;;;;;;4968705;28;20097;-68
2023/12/15 10:31:51;;;;;;;27.15;10.32;;;;;;;;;;4974255;28;20156;-69
2023/12/15 10:34:16;;;;;;;29.75;11.68;;;;;;;;;;4970883;28;20018;-70
2023/12/15 10:36:45;;;;;;;25.55;11.63;;;;;;;;;;4967260;28;20030;-69
2023/12/15 10:39:11;;;;;;;27.02;11.55;;;;;;;;;;4969173;28;20023;-69
2023/12/15 10:41:38;;;;;;;28.80;11.02;;;;;;;;;;4970750;28;20029;-68
2023/12/15 10:44:04;;;;;;;31.23;11.90;;;;;;;;;;4967966;28;20023;-68
2023/12/15 10:46:30;;;;;;;30.30;9.85;;;;;;;;;;4969634;28;20026;-70
2023/12/15 10:48:55;;;;;;;37.17;13.02;;;;;;;;;;4973274;28;20029;-67
2023/12/15 10:51:21;;;;;;;28.75;11.07;;;;;;;;;;4968854;28;20213;-71
2023/12/15 10:53:48;;;;;;;30.15;10.75;;;;;;;;;;4963038;28;20027;-68
2023/12/15 10:56:14;;;;;;;25.98;11.43;;;;;;;;;;4968866;28;20029;-68
2023/12/15 10:58:39;;;;;;;27.33;10.75;;;;;;;;;;4960377;28;20030;-70
2023/12/15 11:01:09;;;;;;;27.02;10.77;;;;;;;;;;4969401;28;20027;-68
2023/12/15 11:03:34;;;;;;;28.38;10.40;;;;;;;;;;4969792;28;20019;-66
2023/12/15 11:05:59;;;;;;;24.77;10.88;;;;;;;;;;4972155;28;20128;-70
2023/12/15 11:08:25;;;;;;;28.98;11.65;;;;;;;;;;4972730;28;20414;-68
2023/12/15 11:10:51;;;;;;;26.02;11.00;;;;;;;;;;4975277;28;20031;-68
2023/12/15 11:13:35;;;;;;;24.25;10.70;;;;;;;;;;4969232;28;20105;-68
2023/12/15 11:16:00;;;;;;;26.30;11.23;;;;;;;;;;4972028;28;20482;-70
2023/12/15 11:18:25;;;;;;;24.85;10.52;;;;;;;;;;4975875;28;20046;-69
2023/12/15 11:20:51;;;;;;;28.77;11.00;;;;;;;;;;4970145;28;20049;-69
2023/12/15 11:23:17;;;;;;;24.35;10.43;;;;;;;;;;4968100;28;20026;-68
2023/12/15 11:25:45;;;;;;;22.73;11.27;;;;;;;;;;4970286;28;20222;-71
2023/12/15 11:28:15;;;;;;;28.27;9.80;;;;;;;;;;4967104;28;20014;-70
2023/12/15 11:30:53;;;;;;;27.27;10.50;;;;;;;;;;4961592;28;20340;-67
2023/12/15 11:33:28;;;;;;;22.67;9.52;;;;;;;;;;4970889;28;20027;-70
2023/12/15 11:35:53;;;;;;;25.20;9.43;;;;;;;;;;4968808;28;20034;-68
2023/12/15 11:38:22;;;;;;;30.20;10.65;;;;;;;;;;4968632;28;20106;-70
2023/12/15 11:40:50;;;;;;;21.08;9.65;;;;;;;;;;4969200;28;20524;-70
2023/12/15 11:43:16;;;;;;;25.13;10.77;;;;;;;;;;4969112;28;20030;-69
2023/12/15 11:45:41;;;;;;;25.15;9.57;;;;;;;;;;4967585;28;20027;-67
2023/12/15 11:48:07;;;;;;;24.95;10.05;;;;;;;;;;4970033;28;20033;-68
2023/12/15 11:50:32;;;;;;;24.63;10.18;;;;;;;;;;4968855;28;20030;-68
2023/12/15 11:52:57;;;;;;;23.45;9.98;;;;;;;;;;4966447;28;20046;-67
2023/12/15 11:55:23;;;;;;;25.20;10.38;;;;;;;;;;4965209;28;20034;-68
2023/12/15 11:57:48;;;;;;;23.80;10.25;;;;;;;;;;4962800;28;20675;-68
2023/12/15 12:00:14;;;;;;;25.98;9.68;;;;;;;;;;4968561;28;20190;-69
2023/12/15 12:02:41;;;;;;;26.85;10.88;;;;;;;;;;4969025;28;20558;-68
2023/12/15 12:05:07;;;;;;;28.40;12.32;;;;;;;;;;4963436;28;20364;-69
2023/12/15 12:07:33;;;;;;;29.55;11.70;;;;;;;;;;4963344;28;20375;-67
2023/12/15 12:09:58;;;;;;;28.60;11.48;;;;;;;;;;4964244;28;20031;-69
2023/12/15 12:12:23;;;;;;;25.25;11.05;;;;;;;;;;4962510;28;20090;-69
2023/12/15 12:14:48;;;;;;;27.73;10.63;;;;;;;;;;4966587;28;20049;-69
2023/12/15 12:17:13;;;;;;;29.20;10.38;;;;;;;;;;4965132;28;20026;-69
2023/12/15 12:19:40;;;;;;;23.42;9.15;;;;;;;;;;4968307;28;20027;-67
2023/12/15 12:22:08;;;;;;;23.30;10.38;;;;;;;;;;4964871;28;20041;-69
2023/12/15 12:24:34;;;;;;;34.25;10.35;;;;;;;;;;4968873;28;20019;-68
2023/12/15 12:26:59;;;;;;;23.83;9.30;;;;;;;;;;4968486;28;20023;-68
2023/12/15 12:29:24;;;;;;;21.67;10.43;;;;;;;;;;4966790;28;20019;-69
2023/12/15 12:31:49;;;;;;;22.60;9.43;;;;;;;;;;4969622;28;20061;-70
2023/12/15 12:34:15;;;;;;;27.55;9.88;;;;;;;;;;4968994;28;20026;-69
2023/12/15 12:36:40;;;;;;;25.63;10.35;;;;;;;;;;4968380;28;20129;-69
2023/12/15 12:39:06;;;;;;;24.67;10.30;;;;;;;;;;4974739;28;20101;-68
2023/12/15 12:41:31;;;;;;;24.92;9.95;;;;;;;;;;4969412;28;20031;-71
2023/12/15 12:43:57;;;;;;;28.30;10.80;;;;;;;;;;4967713;28;20497;-68
2023/12/15 12:46:22;;;;;;;26.35;10.18;;;;;;;;;;4971099;23;20134;-63
2023/12/15 12:48:47;;;;;;;27.88;11.57;;;;;;;;;;4951654;28;20127;-64
2023/12/15 12:51:12;;;;;;;25.50;10.93;;;;;;;;;;4952807;28;20019;-63
2023/12/15 12:53:38;;;;;;;26.63;11.18;;;;;;;;;;4949944;28;20042;-63
2023/12/15 12:56:04;;;;;;;27.60;10.52;;;;;;;;;;4949744;28;20034;-63
2023/12/15 12:58:30;;;;;;;25.08;9.93;;;;;;;;;;4951805;28;20467;-63
2023/12/15 13:00:55;;;;;;;25.75;10.73;;;;;;;;;;4950686;28;20027;-64
2023/12/15 13:03:20;;;;;;;24.23;10.20;;;;;;;;;;4950442;28;20049;-62
2023/12/15 13:05:46;;;;;;;26.95;10.73;;;;;;;;;;4953770;28;20018;-64
2023/12/15 13:08:11;;;;;;;25.88;10.95;;;;;;;;;;4957639;28;20019;-61
2023/12/15 13:10:36;;;;;;;26.15;9.15;;;;;;;;;;4953785;28;20027;-62
2023/12/15 13:13:02;;;;;;;22.13;10.57;;;;;;;;;;4946519;28;20078;-62
2023/12/15 13:15:27;;;;;;;26.88;11.25;;;;;;;;;;4951934;28;20063;-64
2023/12/15 13:17:54;;;;;;;26.27;10.43;;;;;;;;;;4950707;28;20106;-65
2023/12/15 13:20:20;;;;;;;25.05;10.82;;;;;;;;;;4952112;28;20019;-65
2023/12/15 13:22:45;;;;;;;31.08;10.25;;;;;;;;;;4948622;28;20470;-64
2023/12/15 13:25:13;;;;;;;29.58;11.27;;;;;;;;;;4953131;28;20070;-63
2023/12/15 13:27:38;;;;;;;29.85;10.43;;;;;;;;;;4954881;28;20014;-64
2023/12/15 13:30:04;;;;;;;25.77;11.38;;;;;;;;;;4955440;28;20038;-64
2023/12/15 13:32:29;;;;;;;25.95;10.27;;;;;;;;;;4953451;28;20042;-64
2023/12/15 13:34:55;;;;;;;23.85;10.75;;;;;;;;;;4957484;28;20722;-65
2023/12/15 13:37:20;;;;;;;25.40;10.55;;;;;;;;;;4953266;28;20459;-63
2023/12/15 13:39:45;;;;;;;30.50;11.10;;;;;;;;;;4946273;28;20016;-64
2023/12/15 13:42:12;;;;;;;25.20;10.15;;;;;;;;;;4958110;28;20026;-63
2023/12/15 13:44:37;;;;;;;28.75;10.98;;;;;;;;;;4958394;28;20015;-64
2023/12/15 13:47:03;;;;;;;23.25;10.30;;;;;;;;;;4952634;28;20073;-63
2023/12/15 13:49:28;;;;;;;26.27;10.88;;;;;;;;;;4958377;28;20035;-64
2023/12/15 13:51:54;;;;;;;29.08;11.30;;;;;;;;;;4955902;28;20567;-64
2023/12/15 13:54:19;;;;;;;27.13;10.52;;;;;;;;;;4962004;28;20142;-63
2023/12/15 13:56:44;;;;;;;27.95;10.65;;;;;;;;;;4957965;28;20080;-64
2023/12/15 13:59:10;;;;;;;22.15;9.85;;;;;;;;;;4958558;28;20105;-63
2023/12/15 14:01:37;;;;;;;21.27;9.10;;;;;;;;;;4954629;28;20483;-64
2023/12/15 14:04:03;;;;;;;23.75;10.25;;;;;;;;;;4957575;28;20425;-65
2023/12/15 14:06:28;;;;;;;21.30;9.63;;;;;;;;;;4956386;28;20035;-64
2023/12/15 14:08:54;;;;;;;23.98;10.10;;;;;;;;;;4959580;28;20022;-64
2023/12/15 14:11:19;;;;;;;21.88;8.95;;;;;;;;;;4952000;28;20475;-63